sensor_id;sensor_type;location;lat;lon;timestamp;pressure;altitude;pressure_sealevel;temperature;humidity
62864;BME280;48954;59.950;11.014;2022-12-24T00:00:39;99069.83;;;-13.79;81.19
62864;BME280;48954;59.950;11.014;2022-12-24T00:03:18;99069.79;;;-13.79;81.17
62864;BME280;48954;59.950;11.014;2022-12-24T00:05:44;99071.90;;;-13.77;81.23
62864;BME280;48954;59.950;11.014;2022-12-24T00:08:11;99069.50;;;-13.76;81.38
62864;BME280;48954;59.950;11.014;2022-12-24T00:10:37;99072.56;;;-13.74;81.35
62864;BME280;48954;59.950;11.014;2022-12-24T00:13:03;99076.38;;;-13.71;81.48
62864;BME280;48954;59.950;11.014;2022-12-24T00:15:30;99076.56;;;-13.69;81.62
62864;BME280;48954;59.950;11.014;2022-12-24T00:17:58;99078.06;;;-13.69;81.74
62864;BME280;48954;59.950;11.014;2022-12-24T00:20:24;99068.09;;;-13.68;81.57
62864;BME280;48954;59.950;11.014;2022-12-24T00:22:50;99068.64;;;-13.66;81.57
62864;BME280;48954;59.950;11.014;2022-12-24T00:25:17;99070.41;;;-13.64;81.71
62864;BME280;48954;59.950;11.014;2022-12-24T00:27:43;99071.25;;;-13.63;81.61
62864;BME280;48954;59.950;11.014;2022-12-24T00:30:10;99074.86;;;-13.62;81.56
62864;BME280;48954;59.950;11.014;2022-12-24T00:32:36;99076.92;;;-13.62;81.54
62864;BME280;48954;59.950;11.014;2022-12-24T00:35:03;99076.67;;;-13.62;81.76
62864;BME280;48954;59.950;11.014;2022-12-24T00:37:29;99082.48;;;-13.60;81.72
62864;BME280;48954;59.950;11.014;2022-12-24T00:39:55;99085.05;;;-13.61;81.57
62864;BME280;48954;59.950;11.014;2022-12-24T00:42:27;99086.38;;;-13.60;81.69
62864;BME280;48954;59.950;11.014;2022-12-24T00:44:53;99083.77;;;-13.59;81.61
62864;BME280;48954;59.950;11.014;2022-12-24T00:47:20;99086.83;;;-13.60;81.45
62864;BME280;48954;59.950;11.014;2022-12-24T00:49:46;99086.98;;;-13.60;81.59
62864;BME280;48954;59.950;11.014;2022-12-24T00:52:13;99088.66;;;-13.60;81.55
62864;BME280;48954;59.950;11.014;2022-12-24T00:54:39;99086.52;;;-13.61;81.46
62864;BME280;48954;59.950;11.014;2022-12-24T00:57:05;99096.02;;;-13.62;81.49
62864;BME280;48954;59.950;11.014;2022-12-24T00:59:32;99094.57;;;-13.63;81.44
62864;BME280;48954;59.950;11.014;2022-12-24T01:01:58;99099.95;;;-13.64;81.45
62864;BME280;48954;59.950;11.014;2022-12-24T01:04:25;99105.08;;;-13.64;81.50
62864;BME280;48954;59.950;11.014;2022-12-24T01:06:51;99104.16;;;-13.62;81.65
62864;BME280;48954;59.950;11.014;2022-12-24T01:09:17;99095.20;;;-13.63;81.55
62864;BME280;48954;59.950;11.014;2022-12-24T01:11:44;99094.69;;;-13.63;81.39
62864;BME280;48954;59.950;11.014;2022-12-24T01:14:10;99096.48;;;-13.63;81.50
62864;BME280;48954;59.950;11.014;2022-12-24T01:16:37;99099.98;;;-13.63;81.57
62864;BME280;48954;59.950;11.014;2022-12-24T01:19:03;99098.80;;;-13.63;81.52
62864;BME280;48954;59.950;11.014;2022-12-24T01:21:30;99107.39;;;-13.64;81.26
62864;BME280;48954;59.950;11.014;2022-12-24T01:23:56;99109.80;;;-13.64;81.48
62864;BME280;48954;59.950;11.014;2022-12-24T01:26:22;99108.69;;;-13.61;81.61
62864;BME280;48954;59.950;11.014;2022-12-24T01:28:49;99111.96;;;-13.59;81.60
62864;BME280;48954;59.950;11.014;2022-12-24T01:31:17;99112.57;;;-13.59;81.66
62864;BME280;48954;59.950;11.014;2022-12-24T01:33:45;99116.48;;;-13.58;81.54
62864;BME280;48954;59.950;11.014;2022-12-24T01:36:12;99118.66;;;-13.57;81.56
62864;BME280;48954;59.950;11.014;2022-12-24T01:38:39;99126.42;;;-13.56;81.68
62864;BME280;48954;59.950;11.014;2022-12-24T01:41:06;99125.67;;;-13.54;81.68
62864;BME280;48954;59.950;11.014;2022-12-24T01:43:32;99128.60;;;-13.54;81.68
62864;BME280;48954;59.950;11.014;2022-12-24T01:46:13;99129.33;;;-13.54;81.83
62864;BME280;48954;59.950;11.014;2022-12-24T01:48:48;99134.52;;;-13.55;81.61
62864;BME280;48954;59.950;11.014;2022-12-24T01:53:49;99137.96;;;-13.59;81.64
62864;BME280;48954;59.950;11.014;2022-12-24T01:56:18;99137.21;;;-13.62;81.73
62864;BME280;48954;59.950;11.014;2022-12-24T01:58:50;99137.42;;;-13.65;81.67
62864;BME280;48954;59.950;11.014;2022-12-24T02:01:19;99146.17;;;-13.65;81.30
62864;BME280;48954;59.950;11.014;2022-12-24T02:03:46;99150.36;;;-13.65;81.77
62864;BME280;48954;59.950;11.014;2022-12-24T02:06:14;99142.91;;;-13.65;82.03
62864;BME280;48954;59.950;11.014;2022-12-24T02:08:43;99147.55;;;-13.65;81.86
62864;BME280;48954;59.950;11.014;2022-12-24T02:11:20;99144.14;;;-13.66;81.86
62864;BME280;48954;59.950;11.014;2022-12-24T02:13:50;99147.56;;;-13.66;81.77
62864;BME280;48954;59.950;11.014;2022-12-24T02:24:50;99149.31;;;-13.66;81.87
62864;BME280;48954;59.950;11.014;2022-12-24T02:30:04;99144.75;;;-13.65;81.83
62864;BME280;48954;59.950;11.014;2022-12-24T02:35:53;99139.06;;;-13.73;81.47
62864;BME280;48954;59.950;11.014;2022-12-24T02:38:25;99142.88;;;-13.78;81.48
62864;BME280;48954;59.950;11.014;2022-12-24T02:40:57;99144.33;;;-13.82;81.38
62864;BME280;48954;59.950;11.014;2022-12-24T02:43:30;99143.49;;;-13.85;81.39
62864;BME280;48954;59.950;11.014;2022-12-24T02:46:01;99145.58;;;-13.88;81.46
62864;BME280;48954;59.950;11.014;2022-12-24T02:48:29;99144.77;;;-13.88;81.53
62864;BME280;48954;59.950;11.014;2022-12-24T02:51:07;99142.86;;;-13.88;81.68
62864;BME280;48954;59.950;11.014;2022-12-24T02:53:34;99141.09;;;-13.89;81.64
62864;BME280;48954;59.950;11.014;2022-12-24T03:10:05;99165.78;;;-13.95;81.60
62864;BME280;48954;59.950;11.014;2022-12-24T03:12:43;99165.46;;;-13.97;81.65
62864;BME280;48954;59.950;11.014;2022-12-24T03:15:13;99167.77;;;-14.01;81.37
62864;BME280;48954;59.950;11.014;2022-12-24T03:17:42;99165.55;;;-14.05;81.36
62864;BME280;48954;59.950;11.014;2022-12-24T03:20:12;99168.48;;;-14.07;81.42
62864;BME280;48954;59.950;11.014;2022-12-24T03:22:40;99168.59;;;-14.06;81.38
62864;BME280;48954;59.950;11.014;2022-12-24T03:25:07;99169.86;;;-14.07;81.55
62864;BME280;48954;59.950;11.014;2022-12-24T03:27:34;99177.19;;;-14.08;81.36
62864;BME280;48954;59.950;11.014;2022-12-24T03:30:02;99174.54;;;-14.09;81.46
62864;BME280;48954;59.950;11.014;2022-12-24T03:32:31;99177.69;;;-14.10;81.58
62864;BME280;48954;59.950;11.014;2022-12-24T03:34:57;99176.10;;;-14.12;81.39
62864;BME280;48954;59.950;11.014;2022-12-24T03:37:24;99176.80;;;-14.13;81.41
62864;BME280;48954;59.950;11.014;2022-12-24T03:39:50;99171.67;;;-14.15;81.44
62864;BME280;48954;59.950;11.014;2022-12-24T03:42:16;99172.00;;;-14.16;81.48
62864;BME280;48954;59.950;11.014;2022-12-24T03:44:43;99175.59;;;-14.18;81.49
62864;BME280;48954;59.950;11.014;2022-12-24T03:47:09;99179.34;;;-14.19;81.54
62864;BME280;48954;59.950;11.014;2022-12-24T03:49:36;99184.40;;;-14.23;81.10
62864;BME280;48954;59.950;11.014;2022-12-24T03:52:02;99189.57;;;-14.29;80.95
62864;BME280;48954;59.950;11.014;2022-12-24T03:54:29;99188.20;;;-14.33;81.01
62864;BME280;48954;59.950;11.014;2022-12-24T03:56:55;99189.80;;;-14.36;81.04
62864;BME280;48954;59.950;11.014;2022-12-24T03:59:21;99190.21;;;-14.38;81.28
62864;BME280;48954;59.950;11.014;2022-12-24T04:01:48;99189.44;;;-14.39;81.41
62864;BME280;48954;59.950;11.014;2022-12-24T04:04:14;99189.79;;;-14.41;81.12
62864;BME280;48954;59.950;11.014;2022-12-24T04:06:41;99193.78;;;-14.43;81.33
62864;BME280;48954;59.950;11.014;2022-12-24T04:09:07;99195.23;;;-14.47;81.23
62864;BME280;48954;59.950;11.014;2022-12-24T04:11:33;99196.29;;;-14.50;81.39
62864;BME280;48954;59.950;11.014;2022-12-24T04:14:00;99200.23;;;-14.52;81.38
62864;BME280;48954;59.950;11.014;2022-12-24T04:16:26;99200.88;;;-14.53;81.51
62864;BME280;48954;59.950;11.014;2022-12-24T04:18:52;99205.02;;;-14.54;81.40
62864;BME280;48954;59.950;11.014;2022-12-24T04:21:19;99202.12;;;-14.54;81.58
62864;BME280;48954;59.950;11.014;2022-12-24T04:23:45;99208.08;;;-14.51;81.75
62864;BME280;48954;59.950;11.014;2022-12-24T04:26:12;99209.45;;;-14.48;81.78
62864;BME280;48954;59.950;11.014;2022-12-24T04:28:40;99208.91;;;-14.44;81.86
62864;BME280;48954;59.950;11.014;2022-12-24T04:31:11;99205.81;;;-14.39;81.98
62864;BME280;48954;59.950;11.014;2022-12-24T04:33:38;99206.83;;;-14.36;81.90
62864;BME280;48954;59.950;11.014;2022-12-24T04:36:06;99214.25;;;-14.32;81.98
62864;BME280;48954;59.950;11.014;2022-12-24T04:38:33;99214.04;;;-14.29;81.99
62864;BME280;48954;59.950;11.014;2022-12-24T04:41:07;99209.52;;;-14.24;82.05
62864;BME280;48954;59.950;11.014;2022-12-24T04:43:36;99212.51;;;-14.18;82.15
62864;BME280;48954;59.950;11.014;2022-12-24T04:46:06;99212.71;;;-14.15;82.16
62864;BME280;48954;59.950;11.014;2022-12-24T04:48:33;99210.58;;;-14.12;82.00
62864;BME280;48954;59.950;11.014;2022-12-24T04:51:01;99202.84;;;-14.10;82.01
62864;BME280;48954;59.950;11.014;2022-12-24T04:53:28;99202.51;;;-14.07;82.24
62864;BME280;48954;59.950;11.014;2022-12-24T04:55:55;99206.09;;;-14.06;82.19
62864;BME280;48954;59.950;11.014;2022-12-24T04:58:22;99208.72;;;-14.05;82.12
62864;BME280;48954;59.950;11.014;2022-12-24T05:00:49;99207.40;;;-14.03;81.93
62864;BME280;48954;59.950;11.014;2022-12-24T05:03:15;99203.73;;;-14.01;82.21
62864;BME280;48954;59.950;11.014;2022-12-24T05:05:42;99209.75;;;-13.98;82.28
62864;BME280;48954;59.950;11.014;2022-12-24T05:08:08;99203.69;;;-13.96;82.21
62864;BME280;48954;59.950;11.014;2022-12-24T05:10:35;99202.30;;;-13.95;82.11
62864;BME280;48954;59.950;11.014;2022-12-24T05:13:02;99204.93;;;-13.93;82.05
62864;BME280;48954;59.950;11.014;2022-12-24T05:15:28;99204.02;;;-13.92;81.98
62864;BME280;48954;59.950;11.014;2022-12-24T05:17:55;99208.79;;;-13.90;82.10
62864;BME280;48954;59.950;11.014;2022-12-24T05:20:21;99206.45;;;-13.89;82.23
62864;BME280;48954;59.950;11.014;2022-12-24T05:22:48;99209.42;;;-13.87;82.16
62864;BME280;48954;59.950;11.014;2022-12-24T05:25:14;99212.01;;;-13.85;82.10
62864;BME280;48954;59.950;11.014;2022-12-24T05:27:40;99215.14;;;-13.83;82.21
62864;BME280;48954;59.950;11.014;2022-12-24T05:30:07;99208.84;;;-13.84;82.22
62864;BME280;48954;59.950;11.014;2022-12-24T05:32:34;99207.53;;;-13.83;82.09
62864;BME280;48954;59.950;11.014;2022-12-24T05:35:00;99209.55;;;-13.81;82.28
62864;BME280;48954;59.950;11.014;2022-12-24T05:37:27;99210.11;;;-13.79;82.29
62864;BME280;48954;59.950;11.014;2022-12-24T05:39:53;99213.27;;;-13.78;82.38
62864;BME280;48954;59.950;11.014;2022-12-24T05:42:21;99214.78;;;-13.77;82.33
62864;BME280;48954;59.950;11.014;2022-12-24T05:44:47;99216.69;;;-13.78;82.21
62864;BME280;48954;59.950;11.014;2022-12-24T05:47:14;99218.09;;;-13.81;82.05
62864;BME280;48954;59.950;11.014;2022-12-24T05:49:40;99224.89;;;-13.81;82.25
62864;BME280;48954;59.950;11.014;2022-12-24T05:52:06;99220.38;;;-13.81;82.13
62864;BME280;48954;59.950;11.014;2022-12-24T05:54:33;99219.44;;;-13.82;82.06
62864;BME280;48954;59.950;11.014;2022-12-24T05:56:59;99218.63;;;-13.81;82.10
62864;BME280;48954;59.950;11.014;2022-12-24T05:59:26;99221.38;;;-13.80;82.15
62864;BME280;48954;59.950;11.014;2022-12-24T06:01:52;99223.70;;;-13.79;81.99
62864;BME280;48954;59.950;11.014;2022-12-24T06:04:19;99232.31;;;-13.79;82.08
62864;BME280;48954;59.950;11.014;2022-12-24T06:06:45;99235.86;;;-13.80;82.09
62864;BME280;48954;59.950;11.014;2022-12-24T06:09:11;99246.29;;;-13.82;81.91
62864;BME280;48954;59.950;11.014;2022-12-24T06:11:38;99245.13;;;-13.85;82.04
62864;BME280;48954;59.950;11.014;2022-12-24T06:14:04;99246.39;;;-13.86;81.97
62864;BME280;48954;59.950;11.014;2022-12-24T06:16:31;99250.39;;;-13.88;82.14
62864;BME280;48954;59.950;11.014;2022-12-24T06:18:57;99254.59;;;-13.93;81.98
62864;BME280;48954;59.950;11.014;2022-12-24T06:21:24;99260.52;;;-13.95;81.90
62864;BME280;48954;59.950;11.014;2022-12-24T06:23:50;99257.94;;;-13.98;81.82
62864;BME280;48954;59.950;11.014;2022-12-24T06:26:19;99259.73;;;-14.00;82.06
62864;BME280;48954;59.950;11.014;2022-12-24T06:28:48;99265.55;;;-13.98;82.02
62864;BME280;48954;59.950;11.014;2022-12-24T06:31:30;99265.11;;;-13.93;82.31
62864;BME280;48954;59.950;11.014;2022-12-24T06:33:56;99265.17;;;-13.87;82.57
62864;BME280;48954;59.950;11.014;2022-12-24T06:36:24;99265.23;;;-13.82;82.82
62864;BME280;48954;59.950;11.014;2022-12-24T06:38:51;99267.34;;;-13.80;82.58
62864;BME280;48954;59.950;11.014;2022-12-24T06:41:19;99267.05;;;-13.79;82.29
62864;BME280;48954;59.950;11.014;2022-12-24T06:43:48;99265.46;;;-13.78;82.51
62864;BME280;48954;59.950;11.014;2022-12-24T06:46:15;99268.42;;;-13.78;82.35
62864;BME280;48954;59.950;11.014;2022-12-24T06:48:45;99270.27;;;-13.78;82.32
62864;BME280;48954;59.950;11.014;2022-12-24T06:51:13;99271.77;;;-13.79;82.29
62864;BME280;48954;59.950;11.014;2022-12-24T06:53:41;99274.29;;;-13.79;82.26
62864;BME280;48954;59.950;11.014;2022-12-24T06:56:10;99273.43;;;-13.78;82.28
62864;BME280;48954;59.950;11.014;2022-12-24T06:58:38;99279.77;;;-13.78;82.17
62864;BME280;48954;59.950;11.014;2022-12-24T07:01:08;99282.63;;;-13.78;82.23
62864;BME280;48954;59.950;11.014;2022-12-24T07:03:34;99280.48;;;-13.79;82.08
62864;BME280;48954;59.950;11.014;2022-12-24T07:06:01;99280.19;;;-13.78;82.12
62864;BME280;48954;59.950;11.014;2022-12-24T07:08:27;99294.35;;;-13.79;82.14
62864;BME280;48954;59.950;11.014;2022-12-24T07:10:54;99303.34;;;-13.81;81.98
62864;BME280;48954;59.950;11.014;2022-12-24T07:13:20;99305.95;;;-13.90;81.75
62864;BME280;48954;59.950;11.014;2022-12-24T07:15:55;99309.27;;;-14.00;81.70
62864;BME280;48954;59.950;11.014;2022-12-24T07:18:22;99310.11;;;-14.06;81.56
62864;BME280;48954;59.950;11.014;2022-12-24T07:20:49;99306.15;;;-14.12;81.31
62864;BME280;48954;59.950;11.014;2022-12-24T07:23:15;99307.89;;;-14.17;81.31
62864;BME280;48954;59.950;11.014;2022-12-24T07:25:42;99300.64;;;-14.24;81.42
62864;BME280;48954;59.950;11.014;2022-12-24T07:28:08;99300.16;;;-14.29;81.42
62864;BME280;48954;59.950;11.014;2022-12-24T07:30:34;99300.53;;;-14.33;81.22
62864;BME280;48954;59.950;11.014;2022-12-24T07:33:01;99300.81;;;-14.35;81.43
62864;BME280;48954;59.950;11.014;2022-12-24T07:35:27;99304.27;;;-14.37;81.55
62864;BME280;48954;59.950;11.014;2022-12-24T07:37:54;99304.72;;;-14.40;81.62
62864;BME280;48954;59.950;11.014;2022-12-24T07:40:20;99313.28;;;-14.42;81.49
62864;BME280;48954;59.950;11.014;2022-12-24T07:42:47;99321.45;;;-14.41;81.83
62864;BME280;48954;59.950;11.014;2022-12-24T07:45:13;99321.92;;;-14.39;81.92
62864;BME280;48954;59.950;11.014;2022-12-24T07:47:40;99328.41;;;-14.36;82.05
62864;BME280;48954;59.950;11.014;2022-12-24T07:50:07;99326.25;;;-14.37;81.74
62864;BME280;48954;59.950;11.014;2022-12-24T07:52:33;99336.67;;;-14.39;81.76
62864;BME280;48954;59.950;11.014;2022-12-24T07:55:00;99341.64;;;-14.41;81.63
62864;BME280;48954;59.950;11.014;2022-12-24T07:57:26;99355.05;;;-14.43;81.40
62864;BME280;48954;59.950;11.014;2022-12-24T07:59:54;99363.13;;;-14.44;81.67
62864;BME280;48954;59.950;11.014;2022-12-24T08:02:21;99367.89;;;-14.43;81.67
62864;BME280;48954;59.950;11.014;2022-12-24T08:04:47;99368.79;;;-14.44;81.81
62864;BME280;48954;59.950;11.014;2022-12-24T08:07:14;99371.84;;;-14.43;82.03
62864;BME280;48954;59.950;11.014;2022-12-24T08:09:40;99370.73;;;-14.43;81.90
62864;BME280;48954;59.950;11.014;2022-12-24T08:12:06;99368.25;;;-14.41;81.99
62864;BME280;48954;59.950;11.014;2022-12-24T08:14:33;99367.55;;;-14.41;81.77
62864;BME280;48954;59.950;11.014;2022-12-24T08:16:59;99365.09;;;-14.42;81.71
62864;BME280;48954;59.950;11.014;2022-12-24T08:19:26;99362.94;;;-14.42;81.83
62864;BME280;48954;59.950;11.014;2022-12-24T08:21:53;99364.31;;;-14.42;81.75
62864;BME280;48954;59.950;11.014;2022-12-24T08:24:20;99365.13;;;-14.42;81.77
62864;BME280;48954;59.950;11.014;2022-12-24T08:26:46;99367.42;;;-14.41;81.79
62864;BME280;48954;59.950;11.014;2022-12-24T08:29:13;99372.54;;;-14.38;81.83
62864;BME280;48954;59.950;11.014;2022-12-24T08:31:40;99380.27;;;-14.38;81.76
62864;BME280;48954;59.950;11.014;2022-12-24T08:34:07;99384.44;;;-14.36;81.87
62864;BME280;48954;59.950;11.014;2022-12-24T08:36:47;99392.04;;;-14.33;82.39
62864;BME280;48954;59.950;11.014;2022-12-24T08:39:14;99393.41;;;-14.31;82.08
62864;BME280;48954;59.950;11.014;2022-12-24T08:41:41;99403.88;;;-14.27;82.26
62864;BME280;48954;59.950;11.014;2022-12-24T08:44:08;99404.36;;;-14.23;82.40
62864;BME280;48954;59.950;11.014;2022-12-24T08:46:35;99408.91;;;-14.17;82.53
62864;BME280;48954;59.950;11.014;2022-12-24T08:49:04;99410.63;;;-14.10;82.66
62864;BME280;48954;59.950;11.014;2022-12-24T08:51:30;99415.70;;;-14.05;82.62
62864;BME280;48954;59.950;11.014;2022-12-24T08:53:57;99417.19;;;-14.02;82.41
62864;BME280;48954;59.950;11.014;2022-12-24T08:56:24;99416.31;;;-13.98;82.50
62864;BME280;48954;59.950;11.014;2022-12-24T08:58:52;99410.84;;;-13.91;82.82
62864;BME280;48954;59.950;11.014;2022-12-24T09:01:30;99416.79;;;-13.85;82.63
62864;BME280;48954;59.950;11.014;2022-12-24T09:03:57;99423.33;;;-13.83;82.49
62864;BME280;48954;59.950;11.014;2022-12-24T09:06:24;99429.66;;;-13.79;82.42
62864;BME280;48954;59.950;11.014;2022-12-24T09:08:51;99440.73;;;-13.73;82.82
62864;BME280;48954;59.950;11.014;2022-12-24T09:11:19;99442.71;;;-13.68;82.75
62864;BME280;48954;59.950;11.014;2022-12-24T09:13:54;99443.92;;;-13.64;82.83
62864;BME280;48954;59.950;11.014;2022-12-24T09:16:21;99449.22;;;-13.59;82.78
62864;BME280;48954;59.950;11.014;2022-12-24T09:18:48;99453.08;;;-13.55;82.82
62864;BME280;48954;59.950;11.014;2022-12-24T09:21:20;99459.74;;;-13.52;82.66
62864;BME280;48954;59.950;11.014;2022-12-24T09:23:48;99457.14;;;-13.48;82.82
62864;BME280;48954;59.950;11.014;2022-12-24T09:26:24;99450.85;;;-13.43;82.69
62864;BME280;48954;59.950;11.014;2022-12-24T09:28:57;99449.08;;;-13.38;82.76
62864;BME280;48954;59.950;11.014;2022-12-24T09:31:24;99447.50;;;-13.37;82.63
62864;BME280;48954;59.950;11.014;2022-12-24T09:33:54;99453.73;;;-13.33;82.51
62864;BME280;48954;59.950;11.014;2022-12-24T09:36:21;99460.18;;;-13.30;82.56
62864;BME280;48954;59.950;11.014;2022-12-24T09:38:47;99464.04;;;-13.27;82.61
62864;BME280;48954;59.950;11.014;2022-12-24T09:41:46;99461.91;;;-13.26;82.49
62864;BME280;48954;59.950;11.014;2022-12-24T09:44:27;99454.54;;;-13.25;82.35
62864;BME280;48954;59.950;11.014;2022-12-24T09:47:00;99454.27;;;-13.22;82.45
62864;BME280;48954;59.950;11.014;2022-12-24T09:49:41;99456.01;;;-13.21;82.34
62864;BME280;48954;59.950;11.014;2022-12-24T09:52:35;99464.14;;;-13.17;82.37
62864;BME280;48954;59.950;11.014;2022-12-24T09:55:24;99465.80;;;-13.15;82.29
62864;BME280;48954;59.950;11.014;2022-12-24T09:57:53;99463.45;;;-13.15;82.46
62864;BME280;48954;59.950;11.014;2022-12-24T10:00:26;99463.92;;;-13.09;82.42
62864;BME280;48954;59.950;11.014;2022-12-24T10:02:57;99467.17;;;-13.06;82.43
62864;BME280;48954;59.950;11.014;2022-12-24T10:05:34;99464.44;;;-13.06;82.23
62864;BME280;48954;59.950;11.014;2022-12-24T10:10:59;99467.95;;;-13.13;81.76
62864;BME280;48954;59.950;11.014;2022-12-24T10:13:43;99476.89;;;-13.17;81.52
62864;BME280;48954;59.950;11.014;2022-12-24T10:24:45;99479.94;;;-13.34;81.50
62864;BME280;48954;59.950;11.014;2022-12-24T10:27:20;99487.39;;;-13.38;81.77
62864;BME280;48954;59.950;11.014;2022-12-24T10:29:53;99496.98;;;-13.36;82.01
62864;BME280;48954;59.950;11.014;2022-12-24T10:32:29;99496.83;;;-13.32;82.13
62864;BME280;48954;59.950;11.014;2022-12-24T10:35:19;99502.89;;;-13.33;81.94
62864;BME280;48954;59.950;11.014;2022-12-24T10:37:51;99499.52;;;-13.34;81.70
62864;BME280;48954;59.950;11.014;2022-12-24T10:40:43;99504.07;;;-13.31;81.77
62864;BME280;48954;59.950;11.014;2022-12-24T10:43:19;99506.82;;;-13.25;82.17
62864;BME280;48954;59.950;11.014;2022-12-24T10:46:16;99502.30;;;-13.20;82.05
62864;BME280;48954;59.950;11.014;2022-12-24T10:48:54;99509.30;;;-13.21;81.96
62864;BME280;48954;59.950;11.014;2022-12-24T10:51:42;99505.13;;;-13.24;81.86
62864;BME280;48954;59.950;11.014;2022-12-24T10:54:17;99504.05;;;-13.25;81.87
62864;BME280;48954;59.950;11.014;2022-12-24T10:56:46;99503.16;;;-13.23;82.01
62864;BME280;48954;59.950;11.014;2022-12-24T11:01:50;99523.48;;;-13.11;82.49
62864;BME280;48954;59.950;11.014;2022-12-24T11:04:21;99524.17;;;-13.05;82.51
62864;BME280;48954;59.950;11.014;2022-12-24T11:10:00;99511.57;;;-12.99;82.30
62864;BME280;48954;59.950;11.014;2022-12-24T11:12:34;99507.68;;;-12.98;82.13
62864;BME280;48954;59.950;11.014;2022-12-24T11:15:23;99515.64;;;-12.94;82.38
62864;BME280;48954;59.950;11.014;2022-12-24T11:18:00;99519.58;;;-12.92;82.36
62864;BME280;48954;59.950;11.014;2022-12-24T11:20:33;99523.66;;;-12.95;82.38
62864;BME280;48954;59.950;11.014;2022-12-24T11:23:03;99524.45;;;-12.95;82.21
62864;BME280;48954;59.950;11.014;2022-12-24T11:25:37;99526.59;;;-12.94;82.23
62864;BME280;48954;59.950;11.014;2022-12-24T11:28:29;99530.13;;;-12.90;82.62
62864;BME280;48954;59.950;11.014;2022-12-24T11:31:18;99539.98;;;-12.90;82.48
62864;BME280;48954;59.950;11.014;2022-12-24T11:33:48;99544.27;;;-12.90;82.45
62864;BME280;48954;59.950;11.014;2022-12-24T11:36:20;99546.21;;;-12.89;82.42
62864;BME280;48954;59.950;11.014;2022-12-24T11:38:56;99548.94;;;-12.89;82.42
62864;BME280;48954;59.950;11.014;2022-12-24T11:41:35;99548.98;;;-12.89;82.41
62864;BME280;48954;59.950;11.014;2022-12-24T11:44:07;99545.92;;;-12.91;82.23
62864;BME280;48954;59.950;11.014;2022-12-24T11:46:43;99552.27;;;-12.95;81.93
62864;BME280;48954;59.950;11.014;2022-12-24T11:52:16;99559.62;;;-12.98;82.09
62864;BME280;48954;59.950;11.014;2022-12-24T11:54:58;99560.73;;;-13.00;82.19
62864;BME280;48954;59.950;11.014;2022-12-24T11:57:39;99562.78;;;-13.03;82.15
62864;BME280;48954;59.950;11.014;2022-12-24T12:00:15;99562.10;;;-13.09;81.95
62864;BME280;48954;59.950;11.014;2022-12-24T12:02:43;99554.44;;;-13.12;82.12
62864;BME280;48954;59.950;11.014;2022-12-24T12:05:17;99555.56;;;-13.13;82.21
62864;BME280;48954;59.950;11.014;2022-12-24T12:07:51;99554.90;;;-13.17;82.27
62864;BME280;48954;59.950;11.014;2022-12-24T12:10:23;99562.10;;;-13.20;82.32
62864;BME280;48954;59.950;11.014;2022-12-24T12:13:02;99567.03;;;-13.20;82.38
62864;BME280;48954;59.950;11.014;2022-12-24T12:15:43;99569.36;;;-13.19;82.25
62864;BME280;48954;59.950;11.014;2022-12-24T12:18:18;99572.69;;;-13.18;82.46
62864;BME280;48954;59.950;11.014;2022-12-24T12:20:53;99567.17;;;-13.14;82.49
62864;BME280;48954;59.950;11.014;2022-12-24T12:23:29;99565.20;;;-13.08;82.74
62864;BME280;48954;59.950;11.014;2022-12-24T12:26:05;99565.92;;;-13.06;82.57
62864;BME280;48954;59.950;11.014;2022-12-24T12:28:48;99563.92;;;-13.07;82.21
62864;BME280;48954;59.950;11.014;2022-12-24T12:32:36;99576.96;;;-13.06;82.28
62864;BME280;48954;59.950;11.014;2022-12-24T12:35:01;99581.27;;;-13.06;82.42
62864;BME280;48954;59.950;11.014;2022-12-24T12:37:39;99588.72;;;-13.02;82.54
62864;BME280;48954;59.950;11.014;2022-12-24T12:40:24;99589.70;;;-12.96;82.59
62864;BME280;48954;59.950;11.014;2022-12-24T12:46:20;99587.57;;;-12.93;82.34
62864;BME280;48954;59.950;11.014;2022-12-24T12:52:17;99579.59;;;-12.98;82.33
62864;BME280;48954;59.950;11.014;2022-12-24T12:58:08;99580.94;;;-12.97;82.28
62864;BME280;48954;59.950;11.014;2022-12-24T13:00:49;99578.58;;;-12.95;82.67
62864;BME280;48954;59.950;11.014;2022-12-24T13:09:39;99584.10;;;-12.93;82.16
62864;BME280;48954;59.950;11.014;2022-12-24T13:15:43;99583.41;;;-12.84;82.49
62864;BME280;48954;59.950;11.014;2022-12-24T13:18:43;99579.95;;;-12.81;82.47
62864;BME280;48954;59.950;11.014;2022-12-24T13:21:29;99577.40;;;-12.80;82.43
62864;BME280;48954;59.950;11.014;2022-12-24T13:24:18;99577.49;;;-12.83;82.38
62864;BME280;48954;59.950;11.014;2022-12-24T13:29:51;99577.55;;;-12.89;82.04
62864;BME280;48954;59.950;11.014;2022-12-24T13:35:03;99581.81;;;-12.89;82.39
62864;BME280;48954;59.950;11.014;2022-12-24T13:37:37;99588.73;;;-12.86;82.37
62864;BME280;48954;59.950;11.014;2022-12-24T13:40:46;99594.11;;;-12.83;82.55
62864;BME280;48954;59.950;11.014;2022-12-24T13:49:35;99587.00;;;-12.74;82.49
62864;BME280;48954;59.950;11.014;2022-12-24T13:52:51;99596.01;;;-12.72;82.65
62864;BME280;48954;59.950;11.014;2022-12-24T13:55:19;99599.83;;;-12.70;82.48
62864;BME280;48954;59.950;11.014;2022-12-24T13:58:05;99606.95;;;-12.68;82.58
62864;BME280;48954;59.950;11.014;2022-12-24T14:00:51;99607.31;;;-12.68;82.36
62864;BME280;48954;59.950;11.014;2022-12-24T14:03:34;99609.81;;;-12.70;82.55
62864;BME280;48954;59.950;11.014;2022-12-24T14:06:26;99603.98;;;-12.73;82.24
62864;BME280;48954;59.950;11.014;2022-12-24T14:09:12;99596.13;;;-12.76;82.32
62864;BME280;48954;59.950;11.014;2022-12-24T14:12:29;99596.18;;;-12.81;82.15
62864;BME280;48954;59.950;11.014;2022-12-24T14:17:36;99599.33;;;-12.89;82.16
62864;BME280;48954;59.950;11.014;2022-12-24T14:20:06;99602.75;;;-12.90;82.25
62864;BME280;48954;59.950;11.014;2022-12-24T14:22:45;99602.76;;;-12.91;82.38
62864;BME280;48954;59.950;11.014;2022-12-24T14:25:24;99601.91;;;-12.92;82.25